sensor_id;sensor_type;location;lat;lon;timestamp;temperature;humidity
22787;DHT22;63134;52.020;4.714;2023-05-16T00:02:24;9.40;88.00
22787;DHT22;63134;52.020;4.714;2023-05-16T00:05:10;9.40;88.00
22787;DHT22;63134;52.020;4.714;2023-05-16T00:07:58;9.40;88.20
22787;DHT22;63134;52.020;4.714;2023-05-16T00:10:43;9.40;88.10
22787;DHT22;63134;52.020;4.714;2023-05-16T00:13:29;9.40;87.90
22787;DHT22;63134;52.020;4.714;2023-05-16T00:16:14;9.30;87.90
22787;DHT22;63134;52.020;4.714;2023-05-16T00:19:00;9.30;88.10
22787;DHT22;63134;52.020;4.714;2023-05-16T00:21:46;9.20;88.30
22787;DHT22;63134;52.020;4.714;2023-05-16T00:24:32;9.20;88.50
22787;DHT22;63134;52.020;4.714;2023-05-16T00:27:18;9.20;88.40
22787;DHT22;63134;52.020;4.714;2023-05-16T00:30:04;9.20;88.50
22787;DHT22;63134;52.020;4.714;2023-05-16T00:32:50;9.20;88.40
22787;DHT22;63134;52.020;4.714;2023-05-16T00:35:36;9.10;88.30
22787;DHT22;63134;52.020;4.714;2023-05-16T00:38:21;9.00;88.30
22787;DHT22;63134;52.020;4.714;2023-05-16T00:41:09;9.00;88.50
22787;DHT22;63134;52.020;4.714;2023-05-16T00:43:54;8.90;88.20
22787;DHT22;63134;52.020;4.714;2023-05-16T00:46:40;8.90;88.30
22787;DHT22;63134;52.020;4.714;2023-05-16T00:49:25;8.90;89.10
22787;DHT22;63134;52.020;4.714;2023-05-16T00:52:11;9.00;90.00
22787;DHT22;63134;52.020;4.714;2023-05-16T00:54:57;9.00;89.00
22787;DHT22;63134;52.020;4.714;2023-05-16T00:57:43;8.90;88.50
22787;DHT22;63134;52.020;4.714;2023-05-16T01:00:28;8.80;89.10
22787;DHT22;63134;52.020;4.714;2023-05-16T01:03:14;8.90;89.10
22787;DHT22;63134;52.020;4.714;2023-05-16T01:06:02;8.90;89.50
22787;DHT22;63134;52.020;4.714;2023-05-16T01:08:49;8.80;89.50
22787;DHT22;63134;52.020;4.714;2023-05-16T01:11:46;8.90;89.90
22787;DHT22;63134;52.020;4.714;2023-05-16T01:14:54;8.90;89.70
22787;DHT22;63134;52.020;4.714;2023-05-16T01:17:58;8.90;89.90
22787;DHT22;63134;52.020;4.714;2023-05-16T01:20:58;8.90;89.50
22787;DHT22;63134;52.020;4.714;2023-05-16T01:23:59;9.00;90.00
22787;DHT22;63134;52.020;4.714;2023-05-16T01:26:49;9.10;90.00
22787;DHT22;63134;52.020;4.714;2023-05-16T01:29:36;9.10;89.90
22787;DHT22;63134;52.020;4.714;2023-05-16T01:32:22;9.00;89.70
22787;DHT22;63134;52.020;4.714;2023-05-16T01:35:09;9.00;89.70
22787;DHT22;63134;52.020;4.714;2023-05-16T01:38:17;8.90;89.90
22787;DHT22;63134;52.020;4.714;2023-05-16T01:41:24;8.90;90.00
22787;DHT22;63134;52.020;4.714;2023-05-16T01:44:44;8.90;90.10
22787;DHT22;63134;52.020;4.714;2023-05-16T01:47:32;8.90;90.10
22787;DHT22;63134;52.020;4.714;2023-05-16T01:50:21;8.90;90.10
22787;DHT22;63134;52.020;4.714;2023-05-16T01:53:14;8.80;90.00
22787;DHT22;63134;52.020;4.714;2023-05-16T01:56:12;8.70;90.10
22787;DHT22;63134;52.020;4.714;2023-05-16T01:59:00;8.60;90.20
22787;DHT22;63134;52.020;4.714;2023-05-16T02:01:52;8.70;90.50
22787;DHT22;63134;52.020;4.714;2023-05-16T02:04:41;8.60;90.40
22787;DHT22;63134;52.020;4.714;2023-05-16T02:07:27;8.60;90.40
22787;DHT22;63134;52.020;4.714;2023-05-16T02:10:12;8.50;90.40
22787;DHT22;63134;52.020;4.714;2023-05-16T02:12:58;8.50;90.40
22787;DHT22;63134;52.020;4.714;2023-05-16T02:15:43;8.60;90.70
22787;DHT22;63134;52.020;4.714;2023-05-16T02:18:29;8.60;90.50
22787;DHT22;63134;52.020;4.714;2023-05-16T02:21:14;8.60;90.90
22787;DHT22;63134;52.020;4.714;2023-05-16T02:24:00;8.60;90.70
22787;DHT22;63134;52.020;4.714;2023-05-16T02:26:46;8.60;90.70
22787;DHT22;63134;52.020;4.714;2023-05-16T02:29:32;8.60;90.70
22787;DHT22;63134;52.020;4.714;2023-05-16T02:32:20;8.70;90.90
22787;DHT22;63134;52.020;4.714;2023-05-16T02:35:06;8.80;90.90
22787;DHT22;63134;52.020;4.714;2023-05-16T02:37:52;8.80;90.70
22787;DHT22;63134;52.020;4.714;2023-05-16T02:40:37;8.80;90.70
22787;DHT22;63134;52.020;4.714;2023-05-16T02:43:23;8.70;90.70
22787;DHT22;63134;52.020;4.714;2023-05-16T02:46:35;8.70;90.90
22787;DHT22;63134;52.020;4.714;2023-05-16T02:49:21;8.80;91.30
22787;DHT22;63134;52.020;4.714;2023-05-16T02:52:06;8.90;91.50
22787;DHT22;63134;52.020;4.714;2023-05-16T02:54:52;9.10;91.60
22787;DHT22;63134;52.020;4.714;2023-05-16T02:57:43;9.30;91.50
22787;DHT22;63134;52.020;4.714;2023-05-16T03:00:29;9.40;91.10
22787;DHT22;63134;52.020;4.714;2023-05-16T03:03:15;9.50;91.00
22787;DHT22;63134;52.020;4.714;2023-05-16T03:06:01;9.40;90.70
22787;DHT22;63134;52.020;4.714;2023-05-16T03:08:46;9.40;90.40
22787;DHT22;63134;52.020;4.714;2023-05-16T03:11:34;9.40;90.30
22787;DHT22;63134;52.020;4.714;2023-05-16T03:14:21;9.30;90.20
22787;DHT22;63134;52.020;4.714;2023-05-16T03:17:06;9.20;90.20
22787;DHT22;63134;52.020;4.714;2023-05-16T03:19:52;9.20;90.10
22787;DHT22;63134;52.020;4.714;2023-05-16T03:22:38;9.20;90.10
22787;DHT22;63134;52.020;4.714;2023-05-16T03:25:24;9.10;90.00
22787;DHT22;63134;52.020;4.714;2023-05-16T03:28:11;9.10;89.90
22787;DHT22;63134;52.020;4.714;2023-05-16T03:31:00;9.10;89.70
22787;DHT22;63134;52.020;4.714;2023-05-16T03:33:48;9.10;89.60
22787;DHT22;63134;52.020;4.714;2023-05-16T03:36:34;9.10;89.90
22787;DHT22;63134;52.020;4.714;2023-05-16T03:39:20;9.10;90.00
22787;DHT22;63134;52.020;4.714;2023-05-16T03:42:06;9.20;90.00
22787;DHT22;63134;52.020;4.714;2023-05-16T03:44:52;9.10;89.60
22787;DHT22;63134;52.020;4.714;2023-05-16T03:47:38;9.10;90.00
22787;DHT22;63134;52.020;4.714;2023-05-16T03:50:23;9.10;90.10
22787;DHT22;63134;52.020;4.714;2023-05-16T03:53:08;9.10;90.20
22787;DHT22;63134;52.020;4.714;2023-05-16T03:55:55;9.20;90.20
22787;DHT22;63134;52.020;4.714;2023-05-16T03:58:41;9.20;90.10
22787;DHT22;63134;52.020;4.714;2023-05-16T04:01:26;9.20;90.00
22787;DHT22;63134;52.020;4.714;2023-05-16T04:04:12;9.10;89.80
22787;DHT22;63134;52.020;4.714;2023-05-16T04:06:58;9.00;89.80
22787;DHT22;63134;52.020;4.714;2023-05-16T04:09:43;9.10;90.00
22787;DHT22;63134;52.020;4.714;2023-05-16T04:12:29;9.10;89.90
22787;DHT22;63134;52.020;4.714;2023-05-16T04:15:18;9.10;89.90
22787;DHT22;63134;52.020;4.714;2023-05-16T04:18:04;9.20;90.20
22787;DHT22;63134;52.020;4.714;2023-05-16T04:20:49;9.30;90.20
22787;DHT22;63134;52.020;4.714;2023-05-16T04:23:35;9.40;90.40
22787;DHT22;63134;52.020;4.714;2023-05-16T04:26:20;9.60;90.30
22787;DHT22;63134;52.020;4.714;2023-05-16T04:29:07;9.70;89.80
22787;DHT22;63134;52.020;4.714;2023-05-16T04:31:53;9.70;88.90
22787;DHT22;63134;52.020;4.714;2023-05-16T04:34:39;9.70;88.10
22787;DHT22;63134;52.020;4.714;2023-05-16T04:37:25;9.70;87.80
22787;DHT22;63134;52.020;4.714;2023-05-16T04:40:16;9.60;87.60
22787;DHT22;63134;52.020;4.714;2023-05-16T04:43:02;9.60;87.60
22787;DHT22;63134;52.020;4.714;2023-05-16T04:45:47;9.70;87.70
22787;DHT22;63134;52.020;4.714;2023-05-16T04:48:33;9.70;87.60
22787;DHT22;63134;52.020;4.714;2023-05-16T04:51:18;9.60;87.60
22787;DHT22;63134;52.020;4.714;2023-05-16T04:54:09;9.60;87.70
22787;DHT22;63134;52.020;4.714;2023-05-16T04:56:54;9.70;87.70
22787;DHT22;63134;52.020;4.714;2023-05-16T04:59:41;9.60;87.40
22787;DHT22;63134;52.020;4.714;2023-05-16T05:02:27;9.60;87.70
22787;DHT22;63134;52.020;4.714;2023-05-16T05:05:12;9.70;87.70
22787;DHT22;63134;52.020;4.714;2023-05-16T05:07:58;9.70;87.60
22787;DHT22;63134;52.020;4.714;2023-05-16T05:10:44;9.70;87.70
22787;DHT22;63134;52.020;4.714;2023-05-16T05:13:30;9.70;87.70
22787;DHT22;63134;52.020;4.714;2023-05-16T05:16:15;9.70;87.90
22787;DHT22;63134;52.020;4.714;2023-05-16T05:19:01;9.80;88.00
22787;DHT22;63134;52.020;4.714;2023-05-16T05:21:49;9.90;87.70
22787;DHT22;63134;52.020;4.714;2023-05-16T05:24:38;9.90;87.20
22787;DHT22;63134;52.020;4.714;2023-05-16T05:27:23;10.00;87.10
22787;DHT22;63134;52.020;4.714;2023-05-16T05:30:09;10.00;87.10
22787;DHT22;63134;52.020;4.714;2023-05-16T05:32:55;10.20;86.80
22787;DHT22;63134;52.020;4.714;2023-05-16T05:35:40;10.30;86.20
22787;DHT22;63134;52.020;4.714;2023-05-16T05:38:26;10.40;85.60
22787;DHT22;63134;52.020;4.714;2023-05-16T05:41:11;10.50;85.30
22787;DHT22;63134;52.020;4.714;2023-05-16T05:43:57;10.50;84.90
22787;DHT22;63134;52.020;4.714;2023-05-16T05:46:42;10.70;84.60
22787;DHT22;63134;52.020;4.714;2023-05-16T05:49:28;10.70;84.10
22787;DHT22;63134;52.020;4.714;2023-05-16T05:52:17;10.70;84.00
22787;DHT22;63134;52.020;4.714;2023-05-16T05:55:03;10.70;83.80
22787;DHT22;63134;52.020;4.714;2023-05-16T05:57:49;10.70;83.80
22787;DHT22;63134;52.020;4.714;2023-05-16T06:00:34;10.90;83.90
22787;DHT22;63134;52.020;4.714;2023-05-16T06:03:20;10.90;83.90
22787;DHT22;63134;52.020;4.714;2023-05-16T06:06:06;11.00;83.60
22787;DHT22;63134;52.020;4.714;2023-05-16T06:08:56;11.10;84.40
22787;DHT22;63134;52.020;4.714;2023-05-16T06:11:42;11.30;83.20
22787;DHT22;63134;52.020;4.714;2023-05-16T06:14:29;11.50;82.70
22787;DHT22;63134;52.020;4.714;2023-05-16T06:17:15;11.60;81.50
22787;DHT22;63134;52.020;4.714;2023-05-16T06:20:03;11.90;80.70
22787;DHT22;63134;52.020;4.714;2023-05-16T06:22:49;12.20;80.00
22787;DHT22;63134;52.020;4.714;2023-05-16T06:25:35;12.30;79.80
22787;DHT22;63134;52.020;4.714;2023-05-16T06:28:20;12.50;78.00
22787;DHT22;63134;52.020;4.714;2023-05-16T06:31:08;12.50;76.60
22787;DHT22;63134;52.020;4.714;2023-05-16T06:33:54;12.50;76.90
22787;DHT22;63134;52.020;4.714;2023-05-16T06:36:40;12.30;76.90
22787;DHT22;63134;52.020;4.714;2023-05-16T06:39:26;12.30;77.00
22787;DHT22;63134;52.020;4.714;2023-05-16T06:42:11;12.30;76.70
22787;DHT22;63134;52.020;4.714;2023-05-16T06:44:57;12.40;76.50
22787;DHT22;63134;52.020;4.714;2023-05-16T06:47:43;12.40;74.60
22787;DHT22;63134;52.020;4.714;2023-05-16T06:50:31;12.40;74.00
22787;DHT22;63134;52.020;4.714;2023-05-16T06:53:17;12.40;73.00
22787;DHT22;63134;52.020;4.714;2023-05-16T06:56:03;12.30;72.90
22787;DHT22;63134;52.020;4.714;2023-05-16T06:58:49;12.50;73.00
22787;DHT22;63134;52.020;4.714;2023-05-16T07:01:35;12.50;73.50
22787;DHT22;63134;52.020;4.714;2023-05-16T07:04:21;12.70;73.10
22787;DHT22;63134;52.020;4.714;2023-05-16T07:07:09;12.90;72.00
22787;DHT22;63134;52.020;4.714;2023-05-16T07:09:55;13.00;71.70
22787;DHT22;63134;52.020;4.714;2023-05-16T07:12:41;13.00;70.70
22787;DHT22;63134;52.020;4.714;2023-05-16T07:15:27;13.00;70.40
22787;DHT22;63134;52.020;4.714;2023-05-16T07:18:13;13.00;71.00
22787;DHT22;63134;52.020;4.714;2023-05-16T07:20:59;13.00;71.50
22787;DHT22;63134;52.020;4.714;2023-05-16T07:23:44;13.10;72.50
22787;DHT22;63134;52.020;4.714;2023-05-16T07:26:31;13.20;71.90
22787;DHT22;63134;52.020;4.714;2023-05-16T07:29:19;13.30;70.30
22787;DHT22;63134;52.020;4.714;2023-05-16T07:32:06;13.40;69.30
22787;DHT22;63134;52.020;4.714;2023-05-16T07:34:53;13.30;69.60
22787;DHT22;63134;52.020;4.714;2023-05-16T07:37:38;13.20;68.30
22787;DHT22;63134;52.020;4.714;2023-05-16T07:40:26;13.10;67.50
22787;DHT22;63134;52.020;4.714;2023-05-16T07:43:13;13.10;67.80
22787;DHT22;63134;52.020;4.714;2023-05-16T07:45:59;13.10;68.20
22787;DHT22;63134;52.020;4.714;2023-05-16T07:48:45;13.20;68.20
22787;DHT22;63134;52.020;4.714;2023-05-16T07:51:31;13.20;67.80
22787;DHT22;63134;52.020;4.714;2023-05-16T07:54:16;13.30;67.60
22787;DHT22;63134;52.020;4.714;2023-05-16T07:57:02;13.40;67.10
22787;DHT22;63134;52.020;4.714;2023-05-16T07:59:55;13.60;66.00
22787;DHT22;63134;52.020;4.714;2023-05-16T08:02:43;13.70;64.80
22787;DHT22;63134;52.020;4.714;2023-05-16T08:05:29;13.90;64.10
22787;DHT22;63134;52.020;4.714;2023-05-16T08:08:15;14.20;63.90
22787;DHT22;63134;52.020;4.714;2023-05-16T08:11:01;14.30;64.20
22787;DHT22;63134;52.020;4.714;2023-05-16T08:13:48;14.30;63.30
22787;DHT22;63134;52.020;4.714;2023-05-16T08:16:33;14.30;64.20
22787;DHT22;63134;52.020;4.714;2023-05-16T08:19:19;14.40;63.20
22787;DHT22;63134;52.020;4.714;2023-05-16T08:22:06;14.40;63.00
22787;DHT22;63134;52.020;4.714;2023-05-16T08:24:54;14.20;61.70
22787;DHT22;63134;52.020;4.714;2023-05-16T08:27:41;14.30;62.20
22787;DHT22;63134;52.020;4.714;2023-05-16T08:30:28;14.30;61.20
22787;DHT22;63134;52.020;4.714;2023-05-16T08:33:15;14.40;60.40
22787;DHT22;63134;52.020;4.714;2023-05-16T08:36:03;14.30;60.20
22787;DHT22;63134;52.020;4.714;2023-05-16T08:38:52;14.40;60.60
22787;DHT22;63134;52.020;4.714;2023-05-16T08:41:39;14.50;59.90
22787;DHT22;63134;52.020;4.714;2023-05-16T08:44:27;14.50;61.40
22787;DHT22;63134;52.020;4.714;2023-05-16T08:47:17;14.70;61.00
22787;DHT22;63134;52.020;4.714;2023-05-16T08:50:08;14.70;59.80
22787;DHT22;63134;52.020;4.714;2023-05-16T08:52:57;14.80;60.00
22787;DHT22;63134;52.020;4.714;2023-05-16T08:55:47;14.90;59.60
22787;DHT22;63134;52.020;4.714;2023-05-16T08:58:34;14.90;60.20
22787;DHT22;63134;52.020;4.714;2023-05-16T09:01:22;14.80;59.20
22787;DHT22;63134;52.020;4.714;2023-05-16T09:04:10;14.70;58.90
22787;DHT22;63134;52.020;4.714;2023-05-16T09:06:57;14.80;59.10
22787;DHT22;63134;52.020;4.714;2023-05-16T09:09:42;15.10;58.90
22787;DHT22;63134;52.020;4.714;2023-05-16T09:12:28;15.20;58.70
22787;DHT22;63134;52.020;4.714;2023-05-16T09:15:18;15.30;58.50
22787;DHT22;63134;52.020;4.714;2023-05-16T09:18:11;15.20;58.40
22787;DHT22;63134;52.020;4.714;2023-05-16T09:21:00;15.20;58.80
22787;DHT22;63134;52.020;4.714;2023-05-16T09:23:48;15.10;59.00
22787;DHT22;63134;52.020;4.714;2023-05-16T09:26:36;14.90;57.70
22787;DHT22;63134;52.020;4.714;2023-05-16T09:29:22;14.80;58.10
22787;DHT22;63134;52.020;4.714;2023-05-16T09:32:17;14.90;58.40
22787;DHT22;63134;52.020;4.714;2023-05-16T09:35:03;15.10;57.50
22787;DHT22;63134;52.020;4.714;2023-05-16T09:37:49;15.20;57.40
22787;DHT22;63134;52.020;4.714;2023-05-16T09:40:41;15.20;57.50
22787;DHT22;63134;52.020;4.714;2023-05-16T09:43:27;15.30;57.20
22787;DHT22;63134;52.020;4.714;2023-05-16T09:46:13;15.50;56.50
22787;DHT22;63134;52.020;4.714;2023-05-16T09:49:05;15.60;57.30
22787;DHT22;63134;52.020;4.714;2023-05-16T09:51:51;15.50;56.60
22787;DHT22;63134;52.020;4.714;2023-05-16T09:54:36;15.40;56.90
22787;DHT22;63134;52.020;4.714;2023-05-16T09:57:21;15.50;57.00
22787;DHT22;63134;52.020;4.714;2023-05-16T10:00:10;15.30;56.00
22787;DHT22;63134;52.020;4.714;2023-05-16T10:02:56;15.30;56.10
22787;DHT22;63134;52.020;4.714;2023-05-16T10:05:45;15.50;56.60
22787;DHT22;63134;52.020;4.714;2023-05-16T10:08:36;15.50;55.80
22787;DHT22;63134;52.020;4.714;2023-05-16T10:11:21;15.60;55.20
22787;DHT22;63134;52.020;4.714;2023-05-16T10:14:08;15.40;54.40
22787;DHT22;63134;52.020;4.714;2023-05-16T10:16:56;15.30;55.40
22787;DHT22;63134;52.020;4.714;2023-05-16T10:19:46;15.30;56.10
22787;DHT22;63134;52.020;4.714;2023-05-16T10:22:35;15.50;54.40
22787;DHT22;63134;52.020;4.714;2023-05-16T10:25:35;15.70;54.30
22787;DHT22;63134;52.020;4.714;2023-05-16T10:28:23;15.80;53.80
22787;DHT22;63134;52.020;4.714;2023-05-16T10:31:10;15.70;52.90
22787;DHT22;63134;52.020;4.714;2023-05-16T10:33:56;15.70;53.00
22787;DHT22;63134;52.020;4.714;2023-05-16T10:36:43;15.80;54.00
22787;DHT22;63134;52.020;4.714;2023-05-16T10:39:29;15.70;54.40
22787;DHT22;63134;52.020;4.714;2023-05-16T10:42:14;15.60;55.60
22787;DHT22;63134;52.020;4.714;2023-05-16T10:48:02;15.80;52.90
22787;DHT22;63134;52.020;4.714;2023-05-16T10:50:49;16.00;52.50
22787;DHT22;63134;52.020;4.714;2023-05-16T10:53:35;16.20;53.40
22787;DHT22;63134;52.020;4.714;2023-05-16T10:56:22;16.40;53.30
22787;DHT22;63134;52.020;4.714;2023-05-16T10:59:24;16.60;53.20
22787;DHT22;63134;52.020;4.714;2023-05-16T11:02:29;16.70;50.90
22787;DHT22;63134;52.020;4.714;2023-05-16T11:05:18;16.60;51.90
22787;DHT22;63134;52.020;4.714;2023-05-16T11:08:07;16.70;52.70
22787;DHT22;63134;52.020;4.714;2023-05-16T11:17:22;17.50;51.20
22787;DHT22;63134;52.020;4.714;2023-05-16T11:20:29;17.90;51.70
22787;DHT22;63134;52.020;4.714;2023-05-16T11:26:03;19.60;45.60
22787;DHT22;63134;52.020;4.714;2023-05-16T11:28:49;20.20;42.90
22787;DHT22;63134;52.020;4.714;2023-05-16T11:31:35;20.40;43.80
22787;DHT22;63134;52.020;4.714;2023-05-16T11:34:20;20.90;41.40
22787;DHT22;63134;52.020;4.714;2023-05-16T11:37:09;21.20;40.40
22787;DHT22;63134;52.020;4.714;2023-05-16T11:39:59;22.00;39.20
22787;DHT22;63134;52.020;4.714;2023-05-16T11:42:47;22.30;38.60
22787;DHT22;63134;52.020;4.714;2023-05-16T11:45:32;22.20;38.40
22787;DHT22;63134;52.020;4.714;2023-05-16T11:48:18;22.20;38.50
22787;DHT22;63134;52.020;4.714;2023-05-16T11:51:20;22.60;38.80
22787;DHT22;63134;52.020;4.714;2023-05-16T11:54:07;22.40;37.40
22787;DHT22;63134;52.020;4.714;2023-05-16T11:56:53;22.30;36.10
22787;DHT22;63134;52.020;4.714;2023-05-16T11:59:39;21.90;38.60
22787;DHT22;63134;52.020;4.714;2023-05-16T12:02:28;22.70;37.50
22787;DHT22;63134;52.020;4.714;2023-05-16T12:05:16;23.70;33.80
22787;DHT22;63134;52.020;4.714;2023-05-16T12:08:02;23.60;33.00
22787;DHT22;63134;52.020;4.714;2023-05-16T12:10:51;23.80;33.70
22787;DHT22;63134;52.020;4.714;2023-05-16T12:13:37;23.80;31.70
22787;DHT22;63134;52.020;4.714;2023-05-16T12:16:23;23.70;33.20
22787;DHT22;63134;52.020;4.714;2023-05-16T12:19:11;23.90;33.80
22787;DHT22;63134;52.020;4.714;2023-05-16T12:22:00;24.10;31.70
22787;DHT22;63134;52.020;4.714;2023-05-16T12:24:46;24.30;32.20
22787;DHT22;63134;52.020;4.714;2023-05-16T12:27:31;24.30;31.90
22787;DHT22;63134;52.020;4.714;2023-05-16T12:30:17;24.20;33.50
22787;DHT22;63134;52.020;4.714;2023-05-16T12:33:13;25.00;30.80
22787;DHT22;63134;52.020;4.714;2023-05-16T12:36:00;25.30;29.90
22787;DHT22;63134;52.020;4.714;2023-05-16T12:38:47;25.30;30.20
22787;DHT22;63134;52.020;4.714;2023-05-16T12:41:33;25.20;29.40
22787;DHT22;63134;52.020;4.714;2023-05-16T12:44:29;24.40;31.10
22787;DHT22;63134;52.020;4.714;2023-05-16T12:47:14;24.50;30.40
22787;DHT22;63134;52.020;4.714;2023-05-16T12:50:00;24.70;30.40
22787;DHT22;63134;52.020;4.714;2023-05-16T12:52:57;25.00;29.50
22787;DHT22;63134;52.020;4.714;2023-05-16T12:55:45;25.00;30.10
22787;DHT22;63134;52.020;4.714;2023-05-16T12:58:31;25.90;29.60
22787;DHT22;63134;52.020;4.714;2023-05-16T13:01:16;25.90;29.00
22787;DHT22;63134;52.020;4.714;2023-05-16T13:04:02;25.40;29.60
22787;DHT22;63134;52.020;4.714;2023-05-16T13:06:50;25.20;29.80
22787;DHT22;63134;52.020;4.714;2023-05-16T13:09:39;25.60;29.10
22787;DHT22;63134;52.020;4.714;2023-05-16T13:12:28;24.90;30.00
22787;DHT22;63134;52.020;4.714;2023-05-16T13:15:14;24.20;30.50
22787;DHT22;63134;52.020;4.714;2023-05-16T13:17:59;23.70;33.20
22787;DHT22;63134;52.020;4.714;2023-05-16T13:20:46;23.90;32.40
22787;DHT22;63134;52.020;4.714;2023-05-16T13:23:32;24.70;31.60
22787;DHT22;63134;52.020;4.714;2023-05-16T13:26:18;24.80;30.60
22787;DHT22;63134;52.020;4.714;2023-05-16T13:29:05;23.90;32.20
22787;DHT22;63134;52.020;4.714;2023-05-16T13:31:54;24.20;31.70
22787;DHT22;63134;52.020;4.714;2023-05-16T13:34:42;24.90;31.20
22787;DHT22;63134;52.020;4.714;2023-05-16T13:37:28;24.90;30.40
22787;DHT22;63134;52.020;4.714;2023-05-16T13:40:14;25.40;29.50
22787;DHT22;63134;52.020;4.714;2023-05-16T13:42:59;25.50;29.70
22787;DHT22;63134;52.020;4.714;2023-05-16T13:45:45;25.80;29.00
22787;DHT22;63134;52.020;4.714;2023-05-16T13:48:31;26.10;28.80
22787;DHT22;63134;52.020;4.714;2023-05-16T13:51:24;26.40;29.20
22787;DHT22;63134;52.020;4.714;2023-05-16T13:54:10;26.50;28.40
22787;DHT22;63134;52.020;4.714;2023-05-16T13:56:55;26.70;28.20
22787;DHT22;63134;52.020;4.714;2023-05-16T13:59:41;26.40;27.90
22787;DHT22;63134;52.020;4.714;2023-05-16T14:02:55;26.40;28.60
22787;DHT22;63134;52.020;4.714;2023-05-16T14:05:41;27.20;28.40
22787;DHT22;63134;52.020;4.714;2023-05-16T14:08:27;27.80;27.10
22787;DHT22;63134;52.020;4.714;2023-05-16T14:11:13;27.60;26.70
22787;DHT22;63134;52.020;4.714;2023-05-16T14:13:59;27.20;28.20
22787;DHT22;63134;52.020;4.714;2023-05-16T14:16:48;28.10;26.90
22787;DHT22;63134;52.020;4.714;2023-05-16T14:19:34;28.50;26.70
22787;DHT22;63134;52.020;4.714;2023-05-16T14:22:20;28.80;26.50
22787;DHT22;63134;52.020;4.714;2023-05-16T14:25:06;29.80;25.60
22787;DHT22;63134;52.020;4.714;2023-05-16T14:27:52;29.90;24.60
22787;DHT22;63134;52.020;4.714;2023-05-16T14:30:37;29.00;25.50
22787;DHT22;63134;52.020;4.714;2023-05-16T14:33:23;28.50;26.20
22787;DHT22;63134;52.020;4.714;2023-05-16T14:36:11;28.20;26.70
22787;DHT22;63134;52.020;4.714;2023-05-16T14:38:57;28.00;26.90
22787;DHT22;63134;52.020;4.714;2023-05-16T14:41:43;28.40;27.30
22787;DHT22;63134;52.020;4.714;2023-05-16T14:44:29;28.50;25.80
22787;DHT22;63134;52.020;4.714;2023-05-16T14:47:14;28.00;26.60
22787;DHT22;63134;52.020;4.714;2023-05-16T14:50:00;27.80;27.10
22787;DHT22;63134;52.020;4.714;2023-05-16T14:52:46;28.00;27.40
22787;DHT22;63134;52.020;4.714;2023-05-16T14:55:32;28.40;27.50
22787;DHT22;63134;52.020;4.714;2023-05-16T14:58:18;28.40;26.20
22787;DHT22;63134;52.020;4.714;2023-05-16T15:01:04;28.00;27.10
22787;DHT22;63134;52.020;4.714;2023-05-16T15:03:52;28.60;26.60
22787;DHT22;63134;52.020;4.714;2023-05-16T15:06:40;29.10;26.60
22787;DHT22;63134;52.020;4.714;2023-05-16T15:09:26;30.00;25.70
22787;DHT22;63134;52.020;4.714;2023-05-16T15:12:11;30.10;24.90
22787;DHT22;63134;52.020;4.714;2023-05-16T15:14:58;29.80;25.00
22787;DHT22;63134;52.020;4.714;2023-05-16T15:17:47;29.70;24.90
22787;DHT22;63134;52.020;4.714;2023-05-16T15:20:36;29.10;25.40
22787;DHT22;63134;52.020;4.714;2023-05-16T15:23:22;28.40;26.50
22787;DHT22;63134;52.020;4.714;2023-05-16T15:26:11;27.80;27.50
22787;DHT22;63134;52.020;4.714;2023-05-16T15:28:59;27.50;28.20
22787;DHT22;63134;52.020;4.714;2023-05-16T15:31:45;27.10;28.30
22787;DHT22;63134;52.020;4.714;2023-05-16T15:34:34;25.90;30.20
22787;DHT22;63134;52.020;4.714;2023-05-16T15:37:20;26.00;31.70
22787;DHT22;63134;52.020;4.714;2023-05-16T15:40:06;26.70;31.00
22787;DHT22;63134;52.020;4.714;2023-05-16T15:42:54;26.90;30.70
22787;DHT22;63134;52.020;4.714;2023-05-16T15:45:43;26.00;32.70
22787;DHT22;63134;52.020;4.714;2023-05-16T15:48:29;26.00;32.90
22787;DHT22;63134;52.020;4.714;2023-05-16T15:51:15;26.00;33.60
22787;DHT22;63134;52.020;4.714;2023-05-16T15:54:01;25.60;33.70
22787;DHT22;63134;52.020;4.714;2023-05-16T15:56:47;24.70;35.50
22787;DHT22;63134;52.020;4.714;2023-05-16T15:59:32;24.00;37.70
22787;DHT22;63134;52.020;4.714;2023-05-16T16:02:18;23.20;38.90
22787;DHT22;63134;52.020;4.714;2023-05-16T16:05:04;22.50;41.90
22787;DHT22;63134;52.020;4.714;2023-05-16T16:07:51;22.40;42.30
22787;DHT22;63134;52.020;4.714;2023-05-16T16:10:36;21.60;43.10
22787;DHT22;63134;52.020;4.714;2023-05-16T16:13:22;21.00;45.60
22787;DHT22;63134;52.020;4.714;2023-05-16T16:16:10;21.50;45.70
22787;DHT22;63134;52.020;4.714;2023-05-16T16:18:55;22.40;43.30
22787;DHT22;63134;52.020;4.714;2023-05-16T16:21:41;22.80;41.90
22787;DHT22;63134;52.020;4.714;2023-05-16T16:24:26;22.30;42.00
22787;DHT22;63134;52.020;4.714;2023-05-16T16:27:12;21.90;43.60
22787;DHT22;63134;52.020;4.714;2023-05-16T16:29:57;22.50;42.40
22787;DHT22;63134;52.020;4.714;2023-05-16T16:32:44;22.80;42.30
22787;DHT22;63134;52.020;4.714;2023-05-16T16:35:32;23.20;40.90
22787;DHT22;63134;52.020;4.714;2023-05-16T16:38:18;23.00;40.50
22787;DHT22;63134;52.020;4.714;2023-05-16T16:41:03;23.00;41.50
22787;DHT22;63134;52.020;4.714;2023-05-16T16:43:49;22.90;41.90
22787;DHT22;63134;52.020;4.714;2023-05-16T16:46:34;23.20;41.10
22787;DHT22;63134;52.020;4.714;2023-05-16T16:49:20;23.40;41.10
22787;DHT22;63134;52.020;4.714;2023-05-16T16:52:06;23.70;39.70
22787;DHT22;63134;52.020;4.714;2023-05-16T16:54:51;24.00;39.80
22787;DHT22;63134;52.020;4.714;2023-05-16T16:57:40;25.00;37.90
22787;DHT22;63134;52.020;4.714;2023-05-16T17:00:25;25.60;37.10
22787;DHT22;63134;52.020;4.714;2023-05-16T17:03:11;26.30;35.30
22787;DHT22;63134;52.020;4.714;2023-05-16T17:05:56;26.40;34.50
22787;DHT22;63134;52.020;4.714;2023-05-16T17:08:42;25.90;34.20
22787;DHT22;63134;52.020;4.714;2023-05-16T17:11:29;24.70;36.60
22787;DHT22;63134;52.020;4.714;2023-05-16T17:14:15;23.40;38.80
22787;DHT22;63134;52.020;4.714;2023-05-16T17:17:01;22.40;41.30
22787;DHT22;63134;52.020;4.714;2023-05-16T17:19:47;21.40;43.50
22787;DHT22;63134;52.020;4.714;2023-05-16T17:22:33;21.40;45.30
22787;DHT22;63134;52.020;4.714;2023-05-16T17:25:18;21.90;44.50
22787;DHT22;63134;52.020;4.714;2023-05-16T17:28:04;22.10;43.70
22787;DHT22;63134;52.020;4.714;2023-05-16T17:30:49;22.20;43.10
22787;DHT22;63134;52.020;4.714;2023-05-16T17:33:35;22.60;42.10
22787;DHT22;63134;52.020;4.714;2023-05-16T17:36:20;21.90;43.20
22787;DHT22;63134;52.020;4.714;2023-05-16T17:39:06;21.20;45.30
22787;DHT22;63134;52.020;4.714;2023-05-16T17:41:52;20.70;46.20
22787;DHT22;63134;52.020;4.714;2023-05-16T17:44:39;20.10;47.60
22787;DHT22;63134;52.020;4.714;2023-05-16T17:47:25;20.10;49.00
22787;DHT22;63134;52.020;4.714;2023-05-16T17:50:10;20.60;48.60
22787;DHT22;63134;52.020;4.714;2023-05-16T17:52:56;21.00;46.50
22787;DHT22;63134;52.020;4.714;2023-05-16T17:55:42;21.20;45.80